Soleil Weather Down

Nearby METAR Reports

 

KCNI - Canton/Cherokee, Georgia, USA
Distance from station: ENE 6mi, 10km
Updated: Wed, 21-Aug-2019 9:15am EDT
Clear
Clear
 Wind from calm
Wind: Calm
Temperature: 77°F , 25°C
Dew Point: 72°F , 22°C
Humidity: 83%
Barometer: 30.15 inHg , 1021 hPa
Clouds: Clear
Visibility: 10 miles , 16 km
2019/08/21 13:15 KCNI 211315Z AUTO 00000KT 10SM CLR 25/22 A3015 RMK AO2
KRYY - Marietta Mccolum, Georgia, USA
Distance from station: SSW 18mi, 29km
Updated: Wed, 21-Aug-2019 8:50am EDT
Partly cloudy
Partly cloudy
 Wind from SSW
Wind: SSW 6 mph , 9 km/h
Temperature: 73°F , 23°C
Dew Point: 70°F , 21°C
Humidity: 89%
Barometer: 30.15 inHg , 1021 hPa
Clouds: Partly cloudy
Visibility: 10 miles , 16 km
Cloud details: Partly cloudy 800 ft
2019/08/21 12:50 KRYY 211250Z 21005KT 10SM SCT008 23/21 A3015 RMK AO2 SLP929 T02330211 $
KVPC - Cartersville, Georgia, USA
Distance from station: WSW 22mi, 35km
Updated: Wed, 21-Aug-2019 9:20am EDT
Mostly cloudy
Mostly cloudy
 Wind from varies
Wind: varies 3 mph , 6 km/h
Temperature: 79°F , 26°C
Dew Point: 72°F , 22°C
Humidity: 79%
Barometer: 30.13 inHg , 1020.3 hPa
Clouds: Mostly cloudy
Visibility: 10 miles , 16 km
Cloud details: Mostly cloudy 1100 ft
2019/08/21 13:20 KVPC 211320Z AUTO VRB03KT 10SM BKN011 26/22 A3013 RMK AO2 T02560217
 
KMGE - Dobbins Afb/Mari, Georgia, USA
Distance from station: S 24mi, 39km
Updated: Wed, 21-Aug-2019 9:08am EDT
Mist, Overcast
Mist, Overcast
 Wind from W
Wind: W 5 mph , 7 km/h
Temperature: 73°F , 23°C
Dew Point: 70°F , 21°C
Humidity: 89%
Barometer: 30.14 inHg , 1020.7 hPa
Summary: Mist
Clouds: Overcast
Visibility: 6 miles , 10 km
Cloud details: Overcast 700 ft
2019/08/21 13:08 KMGE 211308Z 26004KT 6SM BR OVC007 23/21 A3014 RMK AO2A $
KPDK - Peachtree/Dekalb, Georgia, USA
Distance from station: SSE 29mi, 47km
Updated: Wed, 21-Aug-2019 9:09am EDT
Mostly cloudy
Mostly cloudy
 Wind from W
Wind: W 8 mph , 13 km/h
Temperature: 73°F , 23°C
Dew Point: 70°F , 21°C
Humidity: 89%
Barometer: 30.14 inHg , 1020.7 hPa
Clouds: Mostly cloudy
Visibility: 10 miles , 16 km
Cloud details: Mostly cloudy 600 ft
2019/08/21 13:09 KPDK 211309Z 26007KT 10SM BKN006 23/21 A3014 RMK AO2 T02330211
KFTY - Atlanta/Fulton, Georgia, USA
Distance from station: S 34mi, 54km
Updated: Wed, 21-Aug-2019 8:53am EDT
Overcast
Overcast
 Wind from WSW
Wind: WSW 6 mph , 9 km/h
Temperature: 73°F , 23°C
Dew Point: 70°F , 21°C
Humidity: 89%
Barometer: 30.14 inHg , 1020.7 hPa
Clouds: Overcast
Visibility: 10 miles , 16 km
Cloud details: Overcast 500 ft
2019/08/21 12:53 KFTY 211253Z 25005KT 10SM OVC005 23/21 A3014 RMK AO2 SLP195 T02330211
 
KPUJ - Atlanta/Paulding, Georgia, USA
Distance from station: SW 34mi, 55km
Updated: Wed, 21-Aug-2019 9:15am EDT
Mist, Overcast
Mist, Overcast
 Wind from calm
Wind: Calm
Temperature: 70°F , 21°C
Dew Point: 70°F , 21°C
Humidity: 100%
Barometer: 30.15 inHg , 1021 hPa
Summary: Mist
Clouds: Overcast
Visibility: 5 miles , 8 km
Cloud details: Overcast 100 ft
2019/08/21 13:15 KPUJ 211315Z AUTO 00000KT 5SM BR OVC001 21/21 A3015 RMK AO2
KDNN - Dalton, Georgia, USA
Distance from station: NW 37mi, 59km
Updated: Thu, 01-Aug-2019 6:35pm EDT
NOT Current
Heavy thunderstorm, Rain
Heavy thunderstorm, Rain
 Wind from SE
Wind: SE 17 mph , 28 km/h, Gust: 25 mph , 41 km/h
Temperature: 77°F , 25°C
Dew Point: 70°F , 21°C
Humidity: 79%
Barometer: 30.07 inHg , 1018.3 hPa
Summary: Heavy thunderstorm, Rain
Visibility: 5 miles , 8 km
2019/08/01 22:35 KDNN 012235Z AUTO 13015G22KT 5SM +TSRA 25/21 A3007 RMK AO2 LTG DSNT ALQDS
KLZU - Lawrenceville, Georgia, USA
Distance from station: ESE 37mi, 59km
Updated: Wed, 21-Aug-2019 8:56am EDT
Clear
Clear
 Wind from WSW
Wind: WSW 7 mph , 11 km/h
Temperature: 77°F , 25°C
Dew Point: 72°F , 22°C
Humidity: 83%
Barometer: 30.14 inHg , 1020.7 hPa
Clouds: Clear
Visibility: 10 miles , 16 km
2019/08/21 12:56 KLZU 211256Z 25006KT 10SM CLR 25/22 A3014 RMK AO2 SLP205 T02500222
 
KRMG - Rome, Georgia, USA
Distance from station: W 38mi, 61km
Updated: Wed, 21-Aug-2019 9:22am EDT
Mostly cloudy
Mostly cloudy
 Wind from varies
Wind: varies 5 mph , 7 km/h
Temperature: 77°F , 25°C
Dew Point: 72°F , 22°C
Humidity: 83%
Barometer: 30.11 inHg , 1019.6 hPa
Clouds: Mostly cloudy
Visibility: 10 miles , 16 km
Cloud details: Mostly cloudy 1100 ft
2019/08/21 13:22 KRMG 211322Z AUTO VRB04KT 10SM BKN011 25/22 A3011 RMK AO2 T02500217
KGVL - Gainesville, Georgia, USA
Distance from station: E 39mi, 62km
Updated: Wed, 21-Aug-2019 8:53am EDT
Clear
Clear
 Wind from W
Wind: W 9 mph , 15 km/h
Temperature: 75°F , 24°C
Dew Point: 72°F , 22°C
Humidity: 89%
Barometer: 30.16 inHg , 1021.3 hPa
Clouds: Clear
Visibility: 10 miles , 16 km
2019/08/21 12:53 KGVL 211253Z AUTO 26008KT 10SM CLR 24/22 A3016 RMK AO2 SLP194 T02440222
KATL - Atlanta, Georgia, USA
Distance from station: S 44mi, 71km
Updated: Wed, 21-Aug-2019 8:52am EDT
Mist, Overcast
Mist, Overcast
 Wind from WSW
Wind: WSW 6 mph , 9 km/h
Temperature: 73°F , 23°C
Dew Point: 70°F , 21°C
Humidity: 89%
Barometer: 30.15 inHg , 1021 hPa
Summary: Mist
Clouds: Overcast
Visibility: 3 miles , 5 km
Cloud details: Overcast 600 ft
2019/08/21 12:52 KATL 211252Z 25005KT 3SM BR OVC006 23/21 A3015 RMK AO2 SFC VIS 6 SLP198 CIG 005V008 BINOVC T02330211